createdAt,value
2023-01-30T00:01:03.827Z,43.40
2023-01-30T00:03:30.429Z,44.40
2023-01-30T00:05:56.987Z,45.77
2023-01-30T00:08:24.216Z,47.30
2023-01-30T00:10:50.706Z,40.73
2023-01-30T00:13:17.289Z,41.40
2023-01-30T00:15:43.951Z,40.83
2023-01-30T00:18:10.603Z,42.17
2023-01-30T00:20:37.468Z,45.90
2023-01-30T00:23:04.383Z,42.03
2023-01-30T00:25:31.714Z,39.87
2023-01-30T00:28:02.239Z,42.57
2023-01-30T00:30:29.416Z,41.43
2023-01-30T00:32:59.737Z,42.20
2023-01-30T00:35:28.693Z,40.27
2023-01-30T00:37:59.280Z,41.93
2023-01-30T00:40:27.262Z,39.77
2023-01-30T00:43:12.917Z,44.93
2023-01-30T00:46:01.424Z,42.80
2023-01-30T00:48:28.315Z,45.03
2023-01-30T00:50:54.770Z,41.93
2023-01-30T00:53:21.276Z,48.63
2023-01-30T00:55:47.759Z,41.30
2023-01-30T00:58:14.196Z,41.47
2023-01-30T01:00:40.698Z,44.33
2023-01-30T01:03:07.579Z,40.93
2023-01-30T01:05:34.491Z,39.53
2023-01-30T01:08:01.304Z,46.47
2023-01-30T01:10:27.785Z,37.23
2023-01-30T01:12:54.253Z,43.70
2023-01-30T01:15:22.375Z,41.23
2023-01-30T01:17:49.774Z,39.37
2023-01-30T01:20:17.740Z,46.60
2023-01-30T01:22:44.647Z,40.03
2023-01-30T01:25:11.578Z,42.93
2023-01-30T01:27:38.593Z,39.13
2023-01-30T01:30:06.194Z,44.63
2023-01-30T01:32:32.760Z,41.30
2023-01-30T01:34:59.228Z,43.30
2023-01-30T01:37:25.691Z,43.03
2023-01-30T01:40:10.992Z,45.20
2023-01-30T01:42:38.760Z,44.17
2023-01-30T01:45:15.368Z,44.93
2023-01-30T01:47:59.208Z,41.10
2023-01-30T01:50:38.513Z,42.43
2023-01-30T01:53:05.564Z,44.33
2023-01-30T01:55:32.583Z,35.73
2023-01-30T01:58:08.700Z,42.53
2023-01-30T02:00:35.153Z,46.23
2023-01-30T02:03:19.706Z,41.80
2023-01-30T02:05:50.788Z,36.50
2023-01-30T02:08:21.971Z,43.80
2023-01-30T02:11:03.171Z,42.80
2023-01-30T02:13:30.327Z,38.53
2023-01-30T02:16:00.184Z,40.20
2023-01-30T02:18:29.473Z,41.17
2023-01-30T02:21:05.157Z,39.60
2023-01-30T02:23:56.572Z,40.13
2023-01-30T02:27:00.727Z,43.90
2023-01-30T02:30:05.172Z,38.93
2023-01-30T02:32:59.502Z,45.30
2023-01-30T02:35:38.488Z,38.10
2023-01-30T02:38:20.233Z,35.47
2023-01-30T02:40:56.004Z,37.87
2023-01-30T02:43:40.087Z,46.93
2023-01-30T02:46:20.336Z,37.93
2023-01-30T02:49:07.850Z,44.80
2023-01-30T02:51:37.757Z,38.70
2023-01-30T02:54:11.181Z,42.57
2023-01-30T02:56:57.451Z,34.90
2023-01-30T02:59:44.644Z,40.40
2023-01-30T03:02:16.532Z,35.60
2023-01-30T03:04:58.465Z,35.50
2023-01-30T03:08:04.237Z,33.93
2023-01-30T03:10:39.572Z,38.57
2023-01-30T03:13:38.428Z,37.80
2023-01-30T03:16:38.908Z,34.20
2023-01-30T03:19:09.817Z,36.70
2023-01-30T03:21:42.065Z,33.80
2023-01-30T03:24:08.699Z,37.40
2023-01-30T03:26:39.929Z,32.97
2023-01-30T03:29:06.429Z,32.73
2023-01-30T03:31:33.213Z,35.63
2023-01-30T03:33:59.724Z,34.80
2023-01-30T03:36:26.226Z,37.17
2023-01-30T03:38:52.808Z,36.83
2023-01-30T03:41:19.395Z,36.13
2023-01-30T03:43:45.775Z,34.43
2023-01-30T03:46:12.246Z,35.13
2023-01-30T03:48:38.760Z,32.77
2023-01-30T03:51:05.406Z,32.30
2023-01-30T03:53:31.830Z,38.73
2023-01-30T03:55:58.237Z,33.70
2023-01-30T03:58:24.783Z,39.10
2023-01-30T04:00:51.302Z,34.43
2023-01-30T04:03:17.951Z,37.13
2023-01-30T04:05:44.369Z,37.73
2023-01-30T04:08:11.099Z,40.27
2023-01-30T04:10:37.487Z,42.57
2023-01-30T04:13:03.864Z,31.73
2023-01-30T04:15:30.342Z,35.87
2023-01-30T04:17:56.789Z,34.23
2023-01-30T04:20:23.395Z,36.43
2023-01-30T04:22:49.788Z,38.77
2023-01-30T04:25:17.009Z,38.00
2023-01-30T04:27:44.504Z,39.63
2023-01-30T04:30:11.238Z,33.00
2023-01-30T04:32:37.652Z,38.67
2023-01-30T04:35:04.475Z,41.33
2023-01-30T04:37:31.139Z,36.10
2023-01-30T04:39:57.588Z,34.30
2023-01-30T04:42:24.035Z,38.43
2023-01-30T04:44:50.467Z,34.13
2023-01-30T04:47:17.560Z,37.67
2023-01-30T04:49:44.176Z,34.43
2023-01-30T04:52:10.590Z,34.87
2023-01-30T04:54:37.053Z,33.27
2023-01-30T04:57:03.598Z,37.83
2023-01-30T04:59:30.051Z,42.27
2023-01-30T05:01:56.609Z,31.60
2023-01-30T05:04:23.161Z,30.37
2023-01-30T05:06:49.608Z,39.57
2023-01-30T05:09:16.215Z,34.10
2023-01-30T05:11:42.683Z,31.70
2023-01-30T05:14:09.165Z,39.20
2023-01-30T05:16:35.672Z,30.57
2023-01-30T05:19:02.114Z,37.00
2023-01-30T05:21:28.753Z,31.90
2023-01-30T05:23:56.438Z,32.77
2023-01-30T05:26:24.134Z,31.27
2023-01-30T05:28:55.627Z,30.57
2023-01-30T05:31:22.237Z,31.27
2023-01-30T05:33:50.315Z,33.43
2023-01-30T05:36:18.907Z,28.70
2023-01-30T05:38:45.613Z,33.87
2023-01-30T05:41:14.341Z,30.13
2023-01-30T05:43:41.488Z,29.00
2023-01-30T05:46:09.806Z,28.77
2023-01-30T05:48:36.255Z,30.93
2023-01-30T05:51:02.679Z,30.00
2023-01-30T05:53:32.352Z,35.37
2023-01-30T05:56:01.305Z,27.27
2023-01-30T05:58:28.667Z,25.43
2023-01-30T06:01:00.539Z,24.30
2023-01-30T06:03:27.103Z,28.50
2023-01-30T06:05:53.585Z,31.13
2023-01-30T06:08:20.396Z,24.13
2023-01-30T06:10:46.814Z,24.77
2023-01-30T06:13:13.259Z,26.50
2023-01-30T06:15:39.907Z,24.47
2023-01-30T06:18:06.692Z,28.70
2023-01-30T06:20:33.204Z,31.47
2023-01-30T06:22:59.613Z,26.33
2023-01-30T06:25:27.328Z,30.67
2023-01-30T06:27:53.739Z,25.63
2023-01-30T06:30:20.281Z,25.57
2023-01-30T06:32:50.494Z,28.40
2023-01-30T06:35:17.377Z,29.73
2023-01-30T06:37:45.497Z,27.60
2023-01-30T06:40:13.118Z,24.53
2023-01-30T06:42:44.428Z,23.40
2023-01-30T06:45:11.288Z,27.70
2023-01-30T06:47:48.721Z,26.73
2023-01-30T06:50:17.814Z,28.67
2023-01-30T06:52:49.279Z,26.40
2023-01-30T06:55:17.931Z,27.50
2023-01-30T06:57:45.643Z,26.33
2023-01-30T07:00:15.945Z,26.70
2023-01-30T07:02:42.379Z,33.83
2023-01-30T07:05:10.211Z,26.57
2023-01-30T07:07:37.569Z,24.40
2023-01-30T07:10:08.823Z,28.80
2023-01-30T07:12:36.351Z,28.53
2023-01-30T07:15:04.682Z,25.40
2023-01-30T07:17:31.159Z,25.10
2023-01-30T07:19:57.633Z,26.43
2023-01-30T07:22:24.138Z,31.97
2023-01-30T07:24:50.585Z,29.17
2023-01-30T07:27:17.390Z,22.73
2023-01-30T07:29:43.908Z,24.53
2023-01-30T07:32:19.876Z,23.10
2023-01-30T07:34:47.602Z,25.83
2023-01-30T07:37:14.847Z,25.50
2023-01-30T07:39:41.678Z,24.37
2023-01-30T07:42:08.317Z,27.73
2023-01-30T07:44:34.823Z,24.00
2023-01-30T07:47:01.379Z,25.53
2023-01-30T07:49:27.923Z,25.70
2023-01-30T07:51:54.462Z,23.07
2023-01-30T07:54:21.034Z,29.30
2023-01-30T07:56:47.414Z,24.03
2023-01-30T07:59:13.881Z,26.00
2023-01-30T08:01:40.335Z,27.90
2023-01-30T08:04:06.804Z,30.90
2023-01-30T08:06:38.809Z,25.13
2023-01-30T08:09:06.736Z,26.57
2023-01-30T08:11:33.789Z,25.73
2023-01-30T08:14:00.427Z,24.20
2023-01-30T08:16:27.309Z,34.23
2023-01-30T08:18:53.929Z,28.00
2023-01-30T08:21:20.597Z,26.60
2023-01-30T08:23:47.119Z,24.00
2023-01-30T08:26:13.736Z,25.40
2023-01-30T08:28:40.789Z,25.20
2023-01-30T08:31:12.388Z,31.37
2023-01-30T08:33:39.254Z,28.20
2023-01-30T08:36:06.010Z,35.53
2023-01-30T08:38:32.484Z,45.67
2023-01-30T08:41:00.897Z,22.57
2023-01-30T08:43:27.416Z,26.47
2023-01-30T08:45:54.728Z,31.30
2023-01-30T08:48:21.213Z,43.87
2023-01-30T08:50:47.712Z,26.40
2023-01-30T08:53:14.334Z,32.23
2023-01-30T08:55:40.792Z,30.53
2023-01-30T08:58:07.280Z,31.07
2023-01-30T09:00:33.810Z,27.83
2023-01-30T09:03:01.763Z,28.87
2023-01-30T09:05:29.958Z,24.00
2023-01-30T09:07:56.496Z,27.20
2023-01-30T09:10:24.315Z,25.90
2023-01-30T09:12:50.817Z,23.27
2023-01-30T09:15:17.320Z,28.43
2023-01-30T09:17:44.787Z,29.00
2023-01-30T09:20:12.420Z,33.50
2023-01-30T09:22:39.174Z,26.83
2023-01-30T09:25:06.795Z,20.23
2023-01-30T09:27:33.691Z,22.40
2023-01-30T09:30:00.199Z,25.13
2023-01-30T09:32:26.632Z,33.40
2023-01-30T09:34:53.441Z,24.23
2023-01-30T09:37:19.848Z,24.77
2023-01-30T09:39:46.466Z,19.70
2023-01-30T09:42:58.804Z,24.53
2023-01-30T09:45:59.158Z,24.87
2023-01-30T09:48:35.383Z,20.70
2023-01-30T09:51:22.743Z,30.03
2023-01-30T09:54:14.138Z,24.33
2023-01-30T09:56:41.216Z,24.27
2023-01-30T09:59:19.454Z,40.50
2023-01-30T10:01:48.624Z,21.20
2023-01-30T10:04:18.049Z,22.50
2023-01-30T10:07:04.744Z,26.63
2023-01-30T10:09:56.696Z,27.13
2023-01-30T10:12:50.527Z,29.87
2023-01-30T10:15:42.724Z,19.87
2023-01-30T10:18:39.581Z,20.70
2023-01-30T10:21:26.962Z,27.43
2023-01-30T10:24:05.701Z,19.47
2023-01-30T10:26:32.575Z,28.23
2023-01-30T10:29:31.414Z,21.70
2023-01-30T10:32:10.145Z,16.40
2023-01-30T10:34:43.388Z,34.50
2023-01-30T10:37:18.507Z,29.67
2023-01-30T10:40:14.290Z,24.27
2023-01-30T10:42:49.714Z,27.50
2023-01-30T10:45:21.171Z,23.93
2023-01-30T10:48:31.434Z,28.43
2023-01-30T10:51:29.531Z,23.63
2023-01-30T10:54:05.187Z,23.10
2023-01-30T10:56:47.381Z,24.80
2023-01-30T10:59:50.185Z,21.00
2023-01-30T11:02:16.659Z,27.57
2023-01-30T11:04:56.431Z,24.70
2023-01-30T11:07:22.906Z,27.13
2023-01-30T11:09:49.730Z,27.43
2023-01-30T11:12:16.190Z,25.27
2023-01-30T11:14:56.632Z,17.90
2023-01-30T11:17:34.073Z,28.50
2023-01-30T11:20:22.623Z,23.13
2023-01-30T11:23:06.961Z,19.07
2023-01-30T11:25:49.219Z,30.20
2023-01-30T11:28:22.337Z,29.83
2023-01-30T11:30:54.686Z,19.83
2023-01-30T11:33:23.837Z,25.73
2023-01-30T11:35:55.776Z,24.17
2023-01-30T11:38:25.507Z,29.87
2023-01-30T11:41:04.561Z,28.03
2023-01-30T11:43:33.865Z,23.77
2023-01-30T11:46:00.814Z,25.03
2023-01-30T11:48:33.934Z,19.13
2023-01-30T11:51:17.991Z,27.03
2023-01-30T11:53:49.134Z,26.97
2023-01-30T11:56:30.849Z,20.33
2023-01-30T11:58:59.957Z,23.50
2023-01-30T12:01:30.501Z,25.43
2023-01-30T12:03:58.715Z,29.10
2023-01-30T12:06:34.921Z,22.23
2023-01-30T12:09:01.954Z,21.90
2023-01-30T12:11:31.499Z,24.47
2023-01-30T12:14:27.512Z,30.03
2023-01-30T12:17:02.437Z,25.63
2023-01-30T12:19:39.983Z,22.00
2023-01-30T12:22:24.527Z,20.07
2023-01-30T12:25:25.779Z,20.80
2023-01-30T12:28:10.624Z,18.67
2023-01-30T12:30:43.824Z,22.90
2023-01-30T12:33:15.374Z,30.97
2023-01-30T12:36:02.099Z,26.90
2023-01-30T12:38:58.141Z,30.33
2023-01-30T12:41:52.519Z,18.37
2023-01-30T12:44:45.404Z,24.00
2023-01-30T12:47:14.795Z,25.93
2023-01-30T12:49:54.388Z,17.23
2023-01-30T12:52:41.668Z,31.13
2023-01-30T12:55:32.417Z,17.50
2023-01-30T12:58:36.945Z,22.37
2023-01-30T13:01:16.534Z,21.00
2023-01-30T13:03:50.883Z,23.20
2023-01-30T13:06:52.670Z,26.37
2023-01-30T13:09:53.109Z,22.43
2023-01-30T13:12:32.510Z,27.30
2023-01-30T13:15:08.420Z,26.90
2023-01-30T13:17:40.918Z,24.90
2023-01-30T13:20:13.771Z,20.40
2023-01-30T13:22:49.839Z,25.50
2023-01-30T13:25:53.986Z,20.27
2023-01-30T13:28:26.111Z,29.30
2023-01-30T13:30:55.000Z,24.50
2023-01-30T13:33:28.660Z,22.57
2023-01-30T13:36:03.992Z,21.30
2023-01-30T13:38:34.731Z,24.40
2023-01-30T13:41:03.618Z,29.37
2023-01-30T13:43:41.943Z,40.53
2023-01-30T13:46:12.146Z,25.80
2023-01-30T13:49:06.083Z,24.60
2023-01-30T13:52:02.887Z,26.00
2023-01-30T13:54:47.874Z,23.73
2023-01-30T13:57:24.464Z,31.63
2023-01-30T14:00:07.367Z,33.23
2023-01-30T14:02:33.854Z,24.33
2023-01-30T14:05:03.817Z,24.57
2023-01-30T14:07:41.773Z,29.90
2023-01-30T14:10:20.949Z,36.00
2023-01-30T14:12:54.910Z,26.47
2023-01-30T14:15:25.629Z,23.90
2023-01-30T14:17:58.457Z,24.53
2023-01-30T14:20:27.219Z,26.20
2023-01-30T14:22:58.096Z,26.00
2023-01-30T14:25:30.477Z,26.70
2023-01-30T14:27:59.951Z,21.90
2023-01-30T14:30:47.684Z,23.83
2023-01-30T14:33:23.615Z,32.00
2023-01-30T14:36:02.323Z,30.07
2023-01-30T14:38:36.724Z,34.20
2023-01-30T14:41:03.236Z,27.10
2023-01-30T14:43:41.939Z,26.13
2023-01-30T14:46:17.433Z,27.70
2023-01-30T14:49:16.167Z,23.63
2023-01-30T14:51:45.822Z,26.53
2023-01-30T14:54:12.575Z,32.30
2023-01-30T14:56:59.916Z,36.97
2023-01-30T14:59:59.354Z,30.40
2023-01-30T15:02:44.311Z,25.53
2023-01-30T15:05:15.488Z,26.73
2023-01-30T15:08:02.807Z,30.50
2023-01-30T15:10:44.934Z,32.60
2023-01-30T15:13:30.250Z,25.90
2023-01-30T15:16:15.643Z,32.43
2023-01-30T15:18:48.356Z,33.53
2023-01-30T15:21:29.198Z,28.80
2023-01-30T15:24:30.922Z,29.73
2023-01-30T15:27:27.247Z,32.33
2023-01-30T15:30:32.605Z,41.43
2023-01-30T15:33:29.750Z,24.60
2023-01-30T15:35:57.949Z,27.40
2023-01-30T15:38:28.473Z,25.83
2023-01-30T15:41:06.112Z,28.40
2023-01-30T15:43:48.725Z,31.10
2023-01-30T15:46:30.373Z,32.47
2023-01-30T15:49:07.883Z,28.00
2023-01-30T15:51:34.970Z,24.67
2023-01-30T15:54:08.782Z,24.40
2023-01-30T15:56:35.665Z,29.70
2023-01-30T15:59:02.863Z,24.77
2023-01-30T16:01:30.534Z,29.63
2023-01-30T16:04:00.189Z,35.57
2023-01-30T16:06:32.805Z,29.80
2023-01-30T16:09:18.354Z,37.83
2023-01-30T16:11:44.819Z,37.23
2023-01-30T16:14:13.837Z,30.50
2023-01-30T16:16:57.843Z,28.53
2023-01-30T16:19:37.450Z,30.63
2023-01-30T16:22:07.082Z,25.90
2023-01-30T16:24:36.680Z,32.10
2023-01-30T16:27:07.465Z,32.33
2023-01-30T16:29:46.528Z,25.77
2023-01-30T16:32:17.176Z,27.73
2023-01-30T16:34:43.678Z,31.00
2023-01-30T16:37:16.281Z,24.87
2023-01-30T16:39:43.167Z,25.67
2023-01-30T16:42:24.227Z,31.83
2023-01-30T16:44:50.657Z,34.97
2023-01-30T16:47:27.211Z,29.80
2023-01-30T16:49:55.492Z,36.13
2023-01-30T16:52:36.852Z,28.03
2023-01-30T16:55:06.636Z,32.73
2023-01-30T16:57:43.606Z,28.53
2023-01-30T17:00:21.618Z,38.83
2023-01-30T17:02:56.353Z,34.53
2023-01-30T17:05:28.523Z,33.40
2023-01-30T17:07:56.248Z,30.87
2023-01-30T17:10:28.845Z,29.87
2023-01-30T17:12:56.416Z,40.33
2023-01-30T17:15:22.838Z,30.40
2023-01-30T17:17:49.423Z,29.10
2023-01-30T17:20:16.566Z,26.13
2023-01-30T17:22:45.891Z,31.67
2023-01-30T17:25:31.628Z,28.50
2023-01-30T17:27:58.962Z,33.97
2023-01-30T17:30:25.433Z,29.90
2023-01-30T17:32:51.926Z,30.33
2023-01-30T17:35:18.975Z,27.63
2023-01-30T17:37:53.192Z,34.10
2023-01-30T17:40:37.700Z,37.13
2023-01-30T17:43:04.954Z,28.60
2023-01-30T17:45:31.668Z,31.57
2023-01-30T17:47:58.253Z,42.87
2023-01-30T17:50:24.996Z,36.47
2023-01-30T17:52:51.528Z,30.50
2023-01-30T17:55:18.330Z,38.30
2023-01-30T17:57:47.901Z,30.27
2023-01-30T18:00:17.005Z,29.47
2023-01-30T18:02:43.897Z,30.57
2023-01-30T18:05:11.127Z,31.40
2023-01-30T18:07:38.269Z,39.90
2023-01-30T18:10:05.172Z,32.33
2023-01-30T18:12:31.789Z,34.37
2023-01-30T18:14:58.649Z,32.93
2023-01-30T18:17:28.501Z,31.93
2023-01-30T18:19:55.628Z,36.50
2023-01-30T18:22:22.496Z,36.80
2023-01-30T18:24:49.082Z,28.00
2023-01-30T18:27:15.566Z,36.80
2023-01-30T18:29:41.966Z,37.63
2023-01-30T18:32:08.446Z,33.57
2023-01-30T18:34:35.354Z,35.43
2023-01-30T18:37:01.826Z,36.83
2023-01-30T18:39:28.346Z,39.83
2023-01-30T18:41:54.872Z,31.57
2023-01-30T18:44:21.423Z,33.47
2023-01-30T18:46:50.086Z,37.77
2023-01-30T18:49:16.497Z,29.03
2023-01-30T18:51:42.931Z,36.33
2023-01-30T18:54:09.404Z,30.57
2023-01-30T18:56:36.383Z,41.50
2023-01-30T18:59:05.480Z,36.13
2023-01-30T19:01:35.580Z,33.87
2023-01-30T19:04:03.764Z,28.00
2023-01-30T19:06:30.483Z,37.60
2023-01-30T19:08:57.999Z,36.57
2023-01-30T19:11:43.189Z,30.43
2023-01-30T19:14:10.132Z,31.97
2023-01-30T19:16:38.443Z,46.47
2023-01-30T19:19:06.126Z,38.70
2023-01-30T19:21:32.978Z,37.53
2023-01-30T19:24:02.502Z,37.70
2023-01-30T19:26:29.603Z,34.10
2023-01-30T19:28:56.109Z,27.90
2023-01-30T19:31:22.721Z,31.67
2023-01-30T19:34:00.585Z,30.37
2023-01-30T19:36:30.251Z,34.90
2023-01-30T19:38:59.422Z,29.63
2023-01-30T19:41:29.374Z,37.50
2023-01-30T19:43:58.126Z,36.27
2023-01-30T19:46:25.581Z,29.80
2023-01-30T19:48:52.314Z,36.47
2023-01-30T19:51:24.541Z,38.70
2023-01-30T19:53:54.044Z,30.83
2023-01-30T19:56:22.412Z,21.63
2023-01-30T19:58:52.323Z,28.47
2023-01-30T20:01:21.420Z,36.53
2023-01-30T20:03:48.466Z,32.63
2023-01-30T20:06:20.955Z,28.60
2023-01-30T20:08:50.176Z,34.17
2023-01-30T20:11:21.803Z,40.53
2023-01-30T20:13:49.432Z,36.47
2023-01-30T20:16:20.798Z,34.53
2023-01-30T20:18:49.340Z,39.57
2023-01-30T20:21:18.691Z,42.23
2023-01-30T20:23:46.270Z,29.93
2023-01-30T20:26:17.947Z,30.80
2023-01-30T20:28:44.676Z,28.10
2023-01-30T20:31:23.459Z,32.03
2023-01-30T20:33:50.568Z,36.53
2023-01-30T20:36:19.522Z,32.07
2023-01-30T20:38:47.883Z,23.30
2023-01-30T20:41:20.210Z,36.00
2023-01-30T20:43:51.667Z,29.07
2023-01-30T20:46:21.091Z,31.20
2023-01-30T20:48:48.291Z,39.93
2023-01-30T20:51:17.659Z,38.47
2023-01-30T20:53:51.610Z,31.57
2023-01-30T20:56:19.277Z,28.50
2023-01-30T20:58:45.988Z,32.67
2023-01-30T21:01:18.467Z,26.10
2023-01-30T21:03:46.310Z,39.20
2023-01-30T21:06:12.920Z,34.97
2023-01-30T21:08:40.966Z,28.97
2023-01-30T21:11:10.512Z,32.47
2023-01-30T21:13:38.215Z,24.83
2023-01-30T21:16:11.083Z,30.60
2023-01-30T21:18:39.692Z,30.77
2023-01-30T21:21:08.185Z,26.77
2023-01-30T21:23:35.588Z,36.23
2023-01-30T21:26:07.968Z,27.37
2023-01-30T21:28:36.881Z,29.40
2023-01-30T21:31:18.436Z,33.40
2023-01-30T21:33:45.047Z,32.63
2023-01-30T21:36:12.578Z,21.37
2023-01-30T21:38:57.768Z,27.07
2023-01-30T21:41:46.042Z,29.80
2023-01-30T21:44:13.781Z,24.97
2023-01-30T21:46:46.133Z,26.97
2023-01-30T21:49:13.212Z,31.47
2023-01-30T21:51:44.828Z,32.43
2023-01-30T21:54:11.840Z,32.87
2023-01-30T21:56:39.021Z,23.47
2023-01-30T21:59:06.227Z,22.40
2023-01-30T22:01:34.317Z,26.83
2023-01-30T22:04:03.615Z,33.20
2023-01-30T22:06:30.501Z,24.67
2023-01-30T22:08:59.674Z,25.00
2023-01-30T22:11:27.648Z,41.83
2023-01-30T22:13:54.843Z,37.40
2023-01-30T22:16:27.722Z,31.10
2023-01-30T22:18:56.526Z,28.00
2023-01-30T22:21:25.797Z,39.43
2023-01-30T22:23:53.594Z,38.43
2023-01-30T22:26:22.236Z,31.77
2023-01-30T22:28:48.695Z,32.63
2023-01-30T22:31:18.842Z,27.67
2023-01-30T22:33:51.535Z,24.03
2023-01-30T22:36:18.604Z,31.30
2023-01-30T22:38:46.627Z,37.47
2023-01-30T22:41:17.089Z,22.60
2023-01-30T22:43:45.549Z,31.10
2023-01-30T22:46:13.804Z,25.67
2023-01-30T22:48:41.123Z,47.40
2023-01-30T22:51:13.548Z,25.97
2023-01-30T22:53:42.924Z,26.90
2023-01-30T22:56:11.868Z,27.97
2023-01-30T22:58:39.387Z,33.70
2023-01-30T23:01:07.575Z,27.80
2023-01-30T23:03:34.836Z,29.60
2023-01-30T23:06:04.268Z,32.37
2023-01-30T23:08:33.356Z,48.10
2023-01-30T23:11:10.729Z,35.27
2023-01-30T23:13:38.160Z,40.77
2023-01-30T23:16:06.483Z,40.97
2023-01-30T23:18:52.225Z,29.73
2023-01-30T23:21:18.851Z,34.47
2023-01-30T23:23:46.025Z,40.23
2023-01-30T23:26:13.676Z,27.63
2023-01-30T23:28:40.409Z,24.60
2023-01-30T23:31:09.171Z,40.93
2023-01-30T23:33:35.848Z,35.93
2023-01-30T23:36:07.237Z,36.47
2023-01-30T23:38:34.035Z,28.23
2023-01-30T23:41:12.347Z,29.80
2023-01-30T23:43:40.940Z,35.77
2023-01-30T23:46:30.124Z,43.53
2023-01-30T23:49:02.231Z,34.13
2023-01-30T23:51:30.742Z,39.33
2023-01-30T23:53:57.984Z,28.30
2023-01-30T23:56:27.904Z,28.00
2023-01-30T23:58:54.688Z,36.50
